TimeMDT,TemperatureF,Dew PointF,Humidity,Sea Level PressureIn,VisibilityMPH,Wind Direction,Wind SpeedMPH,Gust SpeedMPH,PrecipitationIn,Events,Conditions,WindDirDegrees,DateUTC
12:53 AM,59.0,19.9,22,30.19,10.0,NE,4.6,-,N/A,,Clear,50,2012-09-14 06:53:00
1:53 AM,61.0,24.1,24,30.18,10.0,East,5.8,-,N/A,,Clear,100,2012-09-14 07:53:00
2:53 AM,59.0,27.0,29,30.19,10.0,Calm,Calm,-,N/A,,Clear,0,2012-09-14 08:53:00
3:53 AM,55.9,27.0,33,30.20,10.0,ESE,12.7,-,N/A,,Clear,110,2012-09-14 09:53:00
4:53 AM,55.9,33.1,42,30.20,10.0,ESE,12.7,-,N/A,,Clear,110,2012-09-14 10:53:00
5:53 AM,54.0,33.1,45,30.22,10.0,SE,9.2,-,N/A,,Clear,130,2012-09-14 11:53:00
6:53 AM,50.0,28.9,44,30.25,10.0,ESE,8.1,-,N/A,,Clear,120,2012-09-14 12:53:00
7:53 AM,55.0,28.9,37,30.27,10.0,ESE,11.5,-,N/A,,Clear,120,2012-09-14 13:53:00
8:53 AM,64.0,30.0,28,30.25,10.0,ESE,10.4,-,N/A,,Clear,120,2012-09-14 14:53:00
9:53 AM,69.1,30.9,24,30.26,10.0,SE,10.4,-,N/A,,Clear,130,2012-09-14 15:53:00
10:53 AM,72.0,30.9,22,30.25,10.0,ESE,9.2,-,N/A,,Clear,110,2012-09-14 16:53:00
11:53 AM,75.0,30.9,20,30.21,10.0,Calm,Calm,-,N/A,,Clear,0,2012-09-14 17:53:00
12:53 PM,78.1,27.0,15,30.19,10.0,Calm,Calm,-,N/A,,Clear,0,2012-09-14 18:53:00
1:53 PM,80.1,30.0,16,30.15,10.0,WSW,8.1,-,N/A,,Clear,250,2012-09-14 19:53:00
2:53 PM,82.9,27.0,13,30.11,10.0,WNW,5.8,-,N/A,,Clear,290,2012-09-14 20:53:00
3:53 PM,84.0,24.1,11,30.09,10.0,West,9.2,-,N/A,,Clear,260,2012-09-14 21:53:00
4:53 PM,84.9,21.9,10,30.06,10.0,WSW,8.1,-,N/A,,Clear,250,2012-09-14 22:53:00
5:53 PM,82.9,26.1,13,30.06,10.0,WNW,6.9,-,N/A,,Clear,290,2012-09-14 23:53:00
6:53 PM,81.0,25.0,13,30.06,10.0,NW,4.6,-,N/A,,Clear,310,2012-09-15 00:53:00
7:53 PM,75.0,23.0,14,30.07,10.0,North,6.9,-,N/A,,Clear,360,2012-09-15 01:53:00
8:53 PM,75.0,24.1,15,30.06,10.0,North,12.7,-,N/A,,Clear,350,2012-09-15 02:53:00
9:53 PM,73.0,24.1,16,30.07,10.0,North,12.7,-,N/A,,Clear,360,2012-09-15 03:53:00
10:53 PM,71.1,25.0,18,30.07,10.0,North,9.2,-,N/A,,Clear,360,2012-09-15 04:53:00
11:53 PM,59.0,23.0,25,30.11,10.0,East,4.6,-,N/A,,Clear,90,2012-09-15 05:53:00